Time;durP1;ratioP1;P1;durP2;ratioP2;P2;SDS_P1;SDS_P2;PMS_P1;PMS_P2;Temp;Humidity;BMP_temperature;BMP_pressure;BME280_temperature;BME280_humidity;BME280_pressure;Samples;Min_cycle;Max_cycle;Signal;HPM_P1;HPM_P2
2022/07/15 00:00:15;;;;;;;0.60;0.60;;;19.80;99.90;;;;;;4161607;28;20059;-84
2022/07/15 00:02:37;;;;;;;0.60;0.60;;;19.80;99.90;;;;;;4146566;28;20168;-84
2022/07/15 00:04:58;;;;;;;0.70;0.60;;;19.80;99.90;;;;;;4146719;28;20516;-85
2022/07/15 00:07:20;;;;;;;2.35;0.65;;;19.70;99.90;;;;;;4133993;28;20092;-84
2022/07/15 00:12:20;;;;;;;0.70;0.70;;;19.50;99.90;;;;;;4168308;28;20052;-84
2022/07/15 00:14:41;;;;;;;2.20;0.70;;;19.10;99.90;;;;;;4147005;28;20148;-84
2022/07/15 00:17:01;;;;;;;0.70;0.70;;;18.90;99.90;;;;;;4131745;28;20052;-84
2022/07/15 00:19:22;;;;;;;0.70;0.70;;;18.80;99.90;;;;;;4161290;28;20138;-84
2022/07/15 00:21:44;;;;;;;1.40;0.70;;;19.10;99.90;;;;;;4146326;28;20126;-84
2022/07/15 00:24:04;;;;;;;1.85;0.77;;;19.20;99.90;;;;;;4161143;28;20138;-85
2022/07/15 00:26:25;;;;;;;0.70;0.70;;;19.20;99.90;;;;;;4145177;28;20495;-85
2022/07/15 00:28:46;;;;;;;0.70;0.70;;;19.00;99.90;;;;;;4140367;28;20048;-84
2022/07/15 00:31:06;;;;;;;0.70;0.70;;;19.00;99.90;;;;;;4161362;28;20055;-84
2022/07/15 00:33:27;;;;;;;0.73;0.50;;;18.70;99.90;;;;;;4146575;28;20126;-85
2022/07/15 00:35:49;;;;;;;1.42;0.60;;;18.70;99.90;;;;;;4146447;28;20056;-84
2022/07/15 00:38:11;;;;;;;2.63;0.70;;;18.70;99.90;;;;;;4161274;28;20080;-84
2022/07/15 00:40:43;;;;;;;0.82;0.60;;;18.90;99.90;;;;;;4146942;28;20335;-84
2022/07/15 00:43:05;;;;;;;0.80;0.80;;;19.00;99.90;;;;;;4161137;28;20056;-84
2022/07/15 00:45:26;;;;;;;1.10;0.60;;;18.90;99.90;;;;;;4146070;28;20160;-84
2022/07/15 00:47:51;;;;;;;0.70;0.70;;;18.70;99.90;;;;;;4160914;28;20104;-84
2022/07/15 00:50:14;;;;;;;0.70;0.70;;;18.40;99.90;;;;;;4145390;28;20316;-84
2022/07/15 00:52:39;;;;;;;0.70;0.70;;;18.20;99.90;;;;;;4146234;28;20101;-84
2022/07/15 00:55:03;;;;;;;0.65;0.65;;;18.20;99.90;;;;;;4161022;28;20056;-84
2022/07/15 00:57:27;;;;;;;0.88;0.70;;;18.10;99.90;;;;;;4145821;28;20052;-84
2022/07/15 00:59:48;;;;;;;0.70;0.70;;;18.20;99.90;;;;;;4160502;28;20574;-84
2022/07/15 01:02:08;;;;;;;0.75;0.60;;;18.10;99.90;;;;;;4160840;28;20428;-84
2022/07/15 01:04:31;;;;;;;0.95;0.70;;;18.10;99.90;;;;;;4160708;28;20103;-84
2022/07/15 01:06:52;;;;;;;0.63;0.63;;;18.00;99.90;;;;;;4146201;28;20113;-84
2022/07/15 01:09:13;;;;;;;0.82;0.82;;;18.10;99.90;;;;;;4160989;28;20055;-84
2022/07/15 01:11:36;;;;;;;1.48;0.70;;;18.30;99.90;;;;;;4168228;28;20083;-84
2022/07/15 01:13:58;;;;;;;1.20;1.10;;;18.30;99.90;;;;;;4162375;28;20692;-84
2022/07/15 01:16:18;;;;;;;0.70;0.70;;;18.20;99.90;;;;;;4146225;28;20048;-84
2022/07/15 01:18:39;;;;;;;0.70;0.70;;;18.20;99.90;;;;;;4144784;28;20116;-84
2022/07/15 01:21:00;;;;;;;0.75;0.75;;;18.00;99.90;;;;;;4129844;28;20053;-84
2022/07/15 01:23:21;;;;;;;0.70;0.70;;;17.80;99.90;;;;;;4157396;28;20096;-84
2022/07/15 01:25:43;;;;;;;0.70;0.70;;;17.90;99.90;;;;;;4160804;28;20125;-84
2022/07/15 01:28:05;;;;;;;0.70;0.70;;;17.90;99.90;;;;;;4145652;28;20079;-84
2022/07/15 01:30:26;;;;;;;0.70;0.70;;;18.00;99.90;;;;;;4160757;28;20056;-84
2022/07/15 01:32:47;;;;;;;0.73;0.73;;;18.10;99.90;;;;;;4160904;28;20044;-84
2022/07/15 01:35:09;;;;;;;0.90;0.90;;;18.10;99.90;;;;;;4160600;28;20524;-84
2022/07/15 01:37:29;;;;;;;0.70;0.70;;;18.10;99.90;;;;;;4160789;28;20092;-84
2022/07/15 01:39:50;;;;;;;0.70;0.70;;;18.00;99.90;;;;;;4144009;28;20061;-84
2022/07/15 01:42:11;;;;;;;1.30;0.70;;;18.00;99.90;;;;;;4154718;28;20129;-84
2022/07/15 01:44:32;;;;;;;0.65;0.65;;;17.70;99.90;;;;;;4160396;28;20063;-84
2022/07/15 01:46:53;;;;;;;0.80;0.80;;;17.70;99.90;;;;;;4160600;28;20104;-84
2022/07/15 01:49:25;;;;;;;2.25;0.80;;;17.80;99.90;;;;;;4160275;28;20052;-84
2022/07/15 01:51:46;;;;;;;1.23;0.70;;;17.80;99.90;;;;;;4145668;28;20096;-84
2022/07/15 01:54:07;;;;;;;1.45;0.80;;;17.90;99.90;;;;;;4145642;28;20077;-84
2022/07/15 01:56:27;;;;;;;0.95;0.80;;;17.80;99.90;;;;;;4145757;28;20068;-84
2022/07/15 01:58:48;;;;;;;2.55;0.70;;;17.60;99.90;;;;;;4145602;28;20052;-84
2022/07/15 02:01:09;;;;;;;1.15;0.80;;;17.40;99.90;;;;;;4161449;28;20586;-84
2022/07/15 02:03:29;;;;;;;0.63;0.63;;;17.40;99.90;;;;;;4148511;28;20052;-84
2022/07/15 02:05:50;;;;;;;2.67;0.82;;;17.40;99.90;;;;;;4163442;28;20408;-84
2022/07/15 02:08:11;;;;;;;1.85;0.80;;;17.40;99.90;;;;;;4163587;28;20095;-84
2022/07/15 02:10:41;;;;;;;1.50;0.70;;;17.20;99.90;;;;;;4162984;28;20136;-84
2022/07/15 02:13:01;;;;;;;1.75;0.90;;;17.20;99.90;;;;;;4149215;28;20061;-83
2022/07/15 02:15:22;;;;;;;0.80;0.80;;;17.00;99.90;;;;;;4163516;28;20409;-84
2022/07/15 02:17:44;;;;;;;1.05;0.80;;;17.00;99.90;;;;;;4147861;28;20057;-84
2022/07/15 02:20:05;;;;;;;0.98;0.98;;;17.00;99.90;;;;;;4163125;28;20063;-84
2022/07/15 02:22:26;;;;;;;1.05;1.05;;;17.10;99.90;;;;;;4163006;28;20128;-84
2022/07/15 02:24:46;;;;;;;0.70;0.70;;;17.10;99.90;;;;;;4148342;28;20840;-84
2022/07/15 02:27:07;;;;;;;0.70;0.70;;;17.00;99.90;;;;;;4148073;28;20099;-84
2022/07/15 02:29:28;;;;;;;1.55;0.80;;;17.00;99.90;;;;;;4148216;28;20045;-84
2022/07/15 02:31:49;;;;;;;0.80;0.80;;;17.10;99.90;;;;;;4162709;28;20056;-84
2022/07/15 02:34:10;;;;;;;0.80;0.80;;;16.90;99.90;;;;;;4146684;28;20057;-84
2022/07/15 02:36:30;;;;;;;1.13;1.02;;;16.70;99.90;;;;;;4143346;28;20088;-84
2022/07/15 02:38:51;;;;;;;3.10;0.93;;;16.80;99.90;;;;;;4163439;28;20103;-84
2022/07/15 02:41:12;;;;;;;1.40;0.90;;;16.70;99.90;;;;;;4148035;28;20065;-84
2022/07/15 02:43:34;;;;;;;0.80;0.80;;;16.50;99.90;;;;;;4162546;28;20531;-84
2022/07/15 02:45:55;;;;;;;0.80;0.80;;;16.40;99.90;;;;;;4147865;28;20625;-83
2022/07/15 02:48:16;;;;;;;3.05;0.90;;;16.50;99.90;;;;;;4162620;28;20484;-84
2022/07/15 02:50:37;;;;;;;0.80;0.80;;;16.50;99.90;;;;;;4162802;28;20119;-84
2022/07/15 02:52:58;;;;;;;0.80;0.80;;;16.30;99.90;;;;;;4148174;28;20164;-84
2022/07/15 02:55:18;;;;;;;0.85;0.85;;;16.30;99.90;;;;;;4147896;28;20181;-83
2022/07/15 02:57:40;;;;;;;1.38;0.90;;;16.20;99.90;;;;;;4162908;28;20060;-83
2022/07/15 03:00:03;;;;;;;0.80;0.80;;;15.90;99.90;;;;;;4162802;28;20063;-84
2022/07/15 03:02:24;;;;;;;;;;;15.90;99.90;;;;;;4163053;28;20123;-84
2022/07/15 03:04:45;;;;;;;0.80;0.80;;;16.20;99.90;;;;;;4162580;28;19943;-84
2022/07/15 03:07:06;;;;;;;0.70;0.70;;;16.40;99.90;;;;;;4162483;28;20127;-84
2022/07/15 03:09:27;;;;;;;0.90;0.90;;;16.40;99.90;;;;;;4162609;28;20110;-83
2022/07/15 03:11:48;;;;;;;0.80;0.80;;;16.40;99.90;;;;;;4138089;28;20109;-83
2022/07/15 03:14:09;;;;;;;1.60;1.00;;;16.20;99.90;;;;;;4131181;28;20101;-84
2022/07/15 03:16:30;;;;;;;1.00;1.00;;;16.30;99.90;;;;;;4131418;28;20044;-84
2022/07/15 03:18:51;;;;;;;1.10;1.00;;;16.20;99.90;;;;;;4146001;28;20072;-84
2022/07/15 03:21:12;;;;;;;1.08;0.88;;;16.20;99.90;;;;;;4145947;28;20073;-83
2022/07/15 03:23:33;;;;;;;2.45;1.00;;;16.20;99.90;;;;;;4145793;28;20069;-84
2022/07/15 03:25:54;;;;;;;1.00;0.90;;;16.30;99.90;;;;;;4144866;28;20272;-84
2022/07/15 03:28:15;;;;;;;0.90;0.90;;;16.20;99.90;;;;;;4146035;28;20116;-84
2022/07/15 03:30:35;;;;;;;0.90;0.90;;;15.90;99.90;;;;;;4145762;28;20049;-83
2022/07/15 03:32:56;;;;;;;0.90;0.90;;;15.80;99.90;;;;;;4158629;28;20052;-84
2022/07/15 03:35:17;;;;;;;0.90;0.90;;;16.00;99.90;;;;;;4162101;28;20099;-84
2022/07/15 03:37:37;;;;;;;0.90;0.90;;;16.00;99.90;;;;;;4161881;28;20104;-83
2022/07/15 03:39:58;;;;;;;1.20;1.00;;;16.00;99.90;;;;;;4145879;28;20053;-83
2022/07/15 03:42:20;;;;;;;1.00;1.00;;;15.70;99.90;;;;;;4156922;28;20140;-83
2022/07/15 03:44:40;;;;;;;3.22;0.95;;;15.70;99.90;;;;;;4161828;28;20068;-84
2022/07/15 03:47:01;;;;;;;2.20;0.90;;;15.70;99.90;;;;;;4161837;28;20099;-84
2022/07/15 03:49:22;;;;;;;1.95;0.90;;;15.60;99.90;;;;;;4147395;28;20401;-84
2022/07/15 03:51:43;;;;;;;1.48;1.10;;;15.50;99.90;;;;;;4146495;28;20505;-84
2022/07/15 03:54:06;;;;;;;1.52;0.80;;;15.60;99.90;;;;;;4161563;28;20127;-84
2022/07/15 03:56:29;;;;;;;1.45;0.90;;;15.50;99.90;;;;;;4146560;28;20064;-83
2022/07/15 03:58:49;;;;;;;1.27;1.27;;;15.40;99.90;;;;;;4146682;28;20124;-84
2022/07/15 04:01:10;;;;;;;1.25;1.15;;;15.30;99.90;;;;;;4161342;28;20452;-84
2022/07/15 04:03:33;;;;;;;1.55;0.90;;;15.30;99.90;;;;;;4147088;28;20053;-83
2022/07/15 04:05:54;;;;;;;2.20;1.00;;;15.30;99.90;;;;;;4161574;28;20437;-83
2022/07/15 04:08:14;;;;;;;2.85;0.90;;;15.40;99.90;;;;;;4161501;28;20052;-83
2022/07/15 04:10:36;;;;;;;0.90;0.90;;;15.40;99.90;;;;;;4161673;28;20213;-83
2022/07/15 04:12:57;;;;;;;0.90;0.90;;;15.50;99.90;;;;;;4145686;28;20621;-83
2022/07/15 04:15:18;;;;;;;0.93;0.90;;;15.50;99.90;;;;;;4146672;28;20097;-84
2022/07/15 04:17:38;;;;;;;0.90;0.90;;;15.40;99.90;;;;;;4161065;28;20103;-84
2022/07/15 04:19:59;;;;;;;1.00;1.00;;;15.40;99.90;;;;;;4161321;28;20060;-83
2022/07/15 04:22:20;;;;;;;0.90;0.90;;;15.20;99.90;;;;;;4160979;28;20091;-84
2022/07/15 04:24:40;;;;;;;1.85;0.95;;;15.40;99.90;;;;;;4161321;28;20125;-83
2022/07/15 04:27:01;;;;;;;1.30;1.00;;;15.30;99.90;;;;;;4160246;28;20534;-83
2022/07/15 04:29:22;;;;;;;1.00;1.00;;;15.20;99.90;;;;;;4160353;28;20566;-83
2022/07/15 04:31:42;;;;;;;1.13;1.00;;;15.30;99.90;;;;;;4160133;28;20056;-83
2022/07/15 04:34:03;;;;;;;3.08;1.00;;;15.30;99.90;;;;;;4161021;28;20048;-84
2022/07/15 04:36:23;;;;;;;0.90;0.90;;;15.50;99.90;;;;;;4146244;28;20579;-83
2022/07/15 04:38:44;;;;;;;1.00;1.00;;;15.70;99.90;;;;;;4146370;28;20181;-83
2022/07/15 04:41:05;;;;;;;1.00;1.00;;;15.70;99.90;;;;;;4145328;28;20060;-83
2022/07/15 04:43:25;;;;;;;1.70;0.90;;;15.60;99.90;;;;;;4146145;28;20088;-83
2022/07/15 04:45:46;;;;;;;1.88;1.38;;;15.60;99.90;;;;;;4146231;28;20088;-83
2022/07/15 04:50:45;;;;;;;1.00;1.00;;;15.70;99.90;;;;;;4177774;28;20051;-83
2022/07/15 04:50:51;;;;;;;1.33;1.23;;;15.90;99.90;;;;;;4164007;28;21021;-83
2022/07/15 04:53:12;;;;;;;1.00;1.00;;;16.00;99.90;;;;;;4160783;28;20123;-83
2022/07/15 04:55:33;;;;;;;1.65;0.90;;;16.00;99.90;;;;;;4146323;28;20116;-85
2022/07/15 04:57:53;;;;;;;1.05;1.00;;;15.80;99.90;;;;;;4160918;28;20045;-84
2022/07/15 05:00:14;;;;;;;2.45;1.10;;;15.70;99.90;;;;;;4160668;28;20064;-85
2022/07/15 05:02:35;;;;;;;2.50;1.00;;;15.60;99.90;;;;;;4161129;28;20088;-85
2022/07/15 05:04:57;;;;;;;1.15;0.90;;;15.70;99.90;;;;;;4160970;28;20503;-85
2022/07/15 05:07:17;;;;;;;8.38;1.55;;;15.70;99.90;;;;;;4160524;28;20130;-84
2022/07/15 05:09:38;;;;;;;1.30;1.20;;;15.60;99.90;;;;;;4160878;28;20512;-85
2022/07/15 05:11:58;;;;;;;1.38;1.27;;;15.60;99.90;;;;;;4160837;28;20051;-85
2022/07/15 05:14:19;;;;;;;3.17;0.90;;;15.50;99.90;;;;;;4160794;28;20056;-84
2022/07/15 05:16:40;;;;;;;1.05;1.05;;;15.50;99.90;;;;;;4145642;28;20575;-85
2022/07/15 05:19:00;;;;;;;1.25;1.00;;;15.50;99.90;;;;;;4144410;28;20583;-85
2022/07/15 05:21:21;;;;;;;1.15;1.05;;;15.60;99.90;;;;;;4144256;28;20104;-84
2022/07/15 05:23:45;;;;;;;1.00;1.00;;;15.80;99.90;;;;;;4159785;28;20068;-85
2022/07/15 05:26:26;;;;;;;1.98;1.48;;;16.00;99.90;;;;;;4148637;28;20124;-86
2022/07/15 05:28:54;;;;;;;2.42;1.00;;;16.10;99.90;;;;;;4160498;28;20146;-84
2022/07/15 05:31:16;;;;;;;1.10;1.10;;;16.10;99.90;;;;;;4144541;28;20053;-86
2022/07/15 05:33:37;;;;;;;1.02;1.00;;;16.10;99.90;;;;;;4130038;28;20201;-86
2022/07/15 05:35:58;;;;;;;2.17;1.10;;;16.20;99.90;;;;;;4142016;28;20598;-85
2022/07/15 05:38:19;;;;;;;4.57;1.30;;;16.20;99.90;;;;;;4149243;28;20073;-85
2022/07/15 05:40:40;;;;;;;2.25;1.10;;;16.30;99.90;;;;;;4148827;28;20072;-86
2022/07/15 05:43:02;;;;;;;1.92;1.10;;;16.50;99.90;;;;;;4149828;28;20056;-86
2022/07/15 05:45:24;;;;;;;3.42;1.00;;;16.50;99.90;;;;;;4149100;28;20135;-86
2022/07/15 05:47:52;;;;;;;1.20;1.20;;;16.70;99.90;;;;;;4163787;28;20687;-85
2022/07/15 05:50:13;;;;;;;0.90;0.90;;;16.70;99.90;;;;;;4149321;28;20080;-86
2022/07/15 05:52:34;;;;;;;1.50;0.90;;;16.90;99.90;;;;;;4147076;28;20517;-85
2022/07/15 05:54:55;;;;;;;2.97;1.00;;;17.10;99.90;;;;;;4141262;28;20117;-86
2022/07/15 05:57:16;;;;;;;1.98;1.00;;;17.10;99.90;;;;;;4163272;28;20052;-86
2022/07/15 05:59:36;;;;;;;1.50;0.80;;;17.20;99.90;;;;;;4163697;28;20099;-85
2022/07/15 06:01:58;;;;;;;1.77;1.00;;;17.20;99.90;;;;;;4163406;28;20075;-85
2022/07/15 06:04:22;;;;;;;10.52;1.02;;;17.50;99.90;;;;;;4163548;28;20107;-86
2022/07/15 06:06:42;;;;;;;0.80;0.80;;;17.60;99.90;;;;;;4148443;28;20135;-85
2022/07/15 06:09:03;;;;;;;1.00;0.90;;;17.80;99.90;;;;;;4147379;28;20048;-86
2022/07/15 06:11:24;;;;;;;2.42;0.90;;;17.90;99.90;;;;;;4139915;28;20104;-86
2022/07/15 06:13:45;;;;;;;0.90;0.90;;;18.00;99.90;;;;;;4153905;28;20056;-86
2022/07/15 06:16:07;;;;;;;0.90;0.80;;;18.10;99.90;;;;;;4163316;28;20756;-85
2022/07/15 06:18:27;;;;;;;2.15;0.73;;;18.40;99.90;;;;;;4148061;28;20065;-85
2022/07/15 06:20:48;;;;;;;2.72;0.80;;;18.80;99.90;;;;;;4163331;28;20200;-86
2022/07/15 06:23:09;;;;;;;1.95;0.80;;;19.40;99.90;;;;;;4163102;28;20061;-85
2022/07/15 06:25:30;;;;;;;0.60;0.60;;;19.60;99.90;;;;;;4148931;28;20687;-86
2022/07/15 06:27:51;;;;;;;1.15;0.80;;;19.80;99.90;;;;;;4131896;28;20061;-86
2022/07/15 06:30:12;;;;;;;1.95;0.80;;;19.90;99.90;;;;;;4143085;28;20111;-86
2022/07/15 06:32:32;;;;;;;0.70;0.70;;;20.10;99.90;;;;;;4163328;28;20047;-86
2022/07/15 06:34:53;;;;;;;0.93;0.70;;;20.50;99.90;;;;;;4163078;28;20136;-86
2022/07/15 06:37:15;;;;;;;2.50;0.70;;;20.50;99.90;;;;;;4147115;28;20089;-87
2022/07/15 06:39:35;;;;;;;1.40;0.70;;;20.40;99.90;;;;;;4156081;28;20064;-86
2022/07/15 06:41:56;;;;;;;0.80;0.70;;;20.40;99.90;;;;;;4163115;28;20063;-86
2022/07/15 06:44:16;;;;;;;1.70;0.73;;;20.40;99.90;;;;;;4163030;28;20048;-87
2022/07/15 06:46:37;;;;;;;3.60;0.70;;;20.50;99.90;;;;;;4162904;28;20483;-86
2022/07/15 06:48:59;;;;;;;1.98;0.70;;;20.70;99.90;;;;;;4162953;28;20507;-86
2022/07/15 06:51:19;;;;;;;1.00;0.60;;;21.20;99.90;;;;;;4133020;28;20552;-86
2022/07/15 06:53:41;;;;;;;0.70;0.70;;;21.90;99.90;;;;;;4163244;28;20065;-86
2022/07/15 06:56:02;;;;;;;3.58;0.60;;;22.00;99.90;;;;;;4147629;28;20050;-86
2022/07/15 06:58:23;;;;;;;2.58;1.08;;;21.90;99.90;;;;;;4147959;28;20044;-86
2022/07/15 07:00:44;;;;;;;1.17;0.60;;;21.90;99.90;;;;;;4162399;28;20417;-86
2022/07/15 07:03:05;;;;;;;0.50;0.50;;;22.30;99.90;;;;;;4162751;28;20072;-86
2022/07/15 07:05:26;;;;;;;0.60;0.60;;;22.80;99.90;;;;;;4162672;28;20064;-87
2022/07/15 07:07:46;;;;;;;0.77;0.57;;;22.60;99.90;;;;;;4162307;28;20048;-87
2022/07/15 07:10:07;;;;;;;0.98;0.65;;;23.00;99.90;;;;;;4162579;28;20047;-87
2022/07/15 07:12:28;;;;;;;2.15;0.50;;;23.00;99.90;;;;;;4175381;28;20052;-87
2022/07/15 07:14:48;;;;;;;0.60;0.60;;;23.30;99.90;;;;;;4153449;28;20140;-86
2022/07/15 07:17:09;;;;;;;0.47;0.47;;;23.70;99.40;;;;;;4161771;28;20053;-87
2022/07/15 07:19:29;;;;;;;0.65;0.57;;;23.50;99.90;;;;;;4147486;28;20072;-87
2022/07/15 07:21:50;;;;;;;0.50;0.50;;;23.60;99.30;;;;;;4161971;28;20052;-87
2022/07/15 07:24:11;;;;;;;0.57;0.57;;;24.10;99.30;;;;;;4147588;28;20556;-87
2022/07/15 07:26:31;;;;;;;0.80;0.50;;;24.30;99.60;;;;;;4162180;28;20053;-87
2022/07/15 07:28:52;;;;;;;0.50;0.50;;;24.20;98.80;;;;;;4147302;28;20100;-88
2022/07/15 07:31:13;;;;;;;0.63;0.50;;;24.10;98.10;;;;;;4162095;28;20049;-88
2022/07/15 07:33:35;;;;;;;0.50;0.50;;;24.80;98.80;;;;;;4162287;28;20044;-88
2022/07/15 07:35:55;;;;;;;3.10;0.50;;;24.60;98.90;;;;;;4147433;28;20080;-87
2022/07/15 07:38:16;;;;;;;2.08;0.50;;;24.90;98.60;;;;;;4162353;28;20774;-87
2022/07/15 07:40:37;;;;;;;0.98;0.50;;;25.40;98.20;;;;;;4161703;28;20087;-88
2022/07/15 07:42:58;;;;;;;1.63;0.50;;;25.90;98.00;;;;;;4162133;28;20131;-88
2022/07/15 07:45:19;;;;;;;0.40;0.40;;;25.80;96.70;;;;;;4162078;28;20056;-87
2022/07/15 07:47:41;;;;;;;1.20;0.50;;;26.00;97.30;;;;;;4130763;28;20190;-87
2022/07/15 07:50:01;;;;;;;1.35;0.40;;;26.30;97.00;;;;;;4135095;28;20464;-87
2022/07/15 07:52:22;;;;;;;2.35;0.52;;;25.90;96.40;;;;;;4150253;28;20130;-86
2022/07/15 07:54:47;;;;;;;0.90;0.47;;;26.20;96.70;;;;;;4161755;28;20107;-87
2022/07/15 07:57:09;;;;;;;0.50;0.50;;;26.60;96.00;;;;;;4145906;28;20159;-89
2022/07/15 07:59:30;;;;;;;0.90;0.47;;;26.60;95.00;;;;;;4155737;28;20133;-89
2022/07/15 08:01:51;;;;;;;0.77;0.40;;;26.60;94.60;;;;;;4146939;28;20583;-87
2022/07/15 08:04:14;;;;;;;1.23;0.50;;;26.60;94.40;;;;;;4147174;28;20060;-87
2022/07/15 08:06:38;;;;;;;0.70;0.40;;;26.60;94.00;;;;;;4145492;28;20112;-86
2022/07/15 08:08:58;;;;;;;0.95;0.40;;;26.60;94.10;;;;;;4140705;28;20141;-85
2022/07/15 08:11:22;;;;;;;0.85;0.63;;;26.90;95.60;;;;;;4146564;28;20077;-85
2022/07/15 08:13:42;;;;;;;0.30;0.30;;;27.40;96.60;;;;;;4161626;28;20083;-85
2022/07/15 08:16:03;;;;;;;5.68;0.40;;;27.50;92.90;;;;;;4161397;28;20049;-86
2022/07/15 08:18:29;;;;;;;0.40;0.40;;;27.10;93.60;;;;;;4161415;28;20582;-85
2022/07/15 08:20:51;;;;;;;0.30;0.30;;;27.30;94.30;;;;;;4161661;28;20132;-84
2022/07/15 08:23:11;;;;;;;0.37;0.30;;;27.40;93.80;;;;;;4161543;28;20107;-84
2022/07/15 08:25:34;;;;;;;0.40;0.40;;;27.80;94.50;;;;;;4146276;28;20056;-83
2022/07/15 08:27:56;;;;;;;;;;;28.10;94.20;;;;;;4161384;28;20061;-84
2022/07/15 08:30:16;;;;;;;1.70;0.57;;;28.20;93.50;;;;;;4146347;28;20028;-83
2022/07/15 08:32:37;;;;;;;2.90;0.60;;;28.00;92.00;;;;;;4146542;28;20053;-84
2022/07/15 08:34:57;;;;;;;0.60;0.40;;;28.10;92.70;;;;;;4161874;28;20055;-84
2022/07/15 08:37:26;;;;;;;0.60;0.47;;;28.10;92.70;;;;;;4161147;28;20075;-84
2022/07/15 08:39:47;;;;;;;0.85;0.40;;;28.10;92.10;;;;;;4161313;28;20065;-84
2022/07/15 08:42:07;;;;;;;0.55;0.40;;;28.30;91.00;;;;;;4161347;28;20622;-83
2022/07/15 08:44:28;;;;;;;2.75;0.35;;;28.50;93.10;;;;;;4161040;28;20127;-84
2022/07/15 08:46:53;;;;;;;2.50;0.38;;;28.90;92.00;;;;;;4161429;28;20051;-84
2022/07/15 08:49:16;;;;;;;0.40;0.40;;;28.70;91.90;;;;;;4147037;28;20611;-84
2022/07/15 08:51:41;;;;;;;0.40;0.40;;;29.10;89.80;;;;;;4146714;28;20541;-84
2022/07/15 08:54:01;;;;;;;0.40;0.38;;;29.10;90.20;;;;;;4146600;28;20100;-84
2022/07/15 08:56:22;;;;;;;0.30;0.30;;;29.30;88.00;;;;;;4161266;28;20567;-84
2022/07/15 08:58:43;;;;;;;0.98;0.55;;;29.00;84.60;;;;;;4146526;28;20425;-84
2022/07/15 09:01:22;;;;;;;1.30;0.40;;;29.10;90.30;;;;;;4161049;28;20060;-84
2022/07/15 09:03:43;;;;;;;0.70;0.60;;;28.80;86.00;;;;;;4146551;28;20088;-84
2022/07/15 09:06:04;;;;;;;0.30;0.30;;;28.80;85.90;;;;;;4146735;28;20139;-85
2022/07/15 09:08:25;;;;;;;0.75;0.30;;;29.00;84.50;;;;;;4146368;28;20677;-84
2022/07/15 09:10:57;;;;;;;0.52;0.30;;;29.10;84.50;;;;;;4148021;28;20156;-85
2022/07/15 09:13:25;;;;;;;0.30;0.30;;;29.50;86.10;;;;;;4151761;28;20088;-85
2022/07/15 09:15:46;;;;;;;0.30;0.30;;;29.20;85.00;;;;;;4149553;28;20060;-83
2022/07/15 09:18:15;;;;;;;1.02;0.40;;;29.30;84.70;;;;;;4164190;28;20180;-84
2022/07/15 09:20:37;;;;;;;1.13;0.40;;;29.80;84.40;;;;;;4149566;28;20057;-84
2022/07/15 09:22:57;;;;;;;1.25;0.40;;;30.20;83.10;;;;;;4149055;28;20060;-84
2022/07/15 09:25:19;;;;;;;1.85;0.77;;;30.10;83.00;;;;;;4149270;28;20065;-84
2022/07/15 09:27:41;;;;;;;0.30;0.30;;;30.00;81.50;;;;;;4164071;28;20421;-84
2022/07/15 09:36:09;;;;;;;0.25;0.25;;;30.60;80.00;;;;;;4113526;28;20093;-84
2022/07/15 09:38:46;;;;;;;0.40;0.30;;;30.30;79.80;;;;;;4120112;28;20081;-84
2022/07/15 09:41:18;;;;;;;0.20;0.20;;;30.10;79.50;;;;;;4115253;28;20078;-84
2022/07/15 09:43:49;;;;;;;0.57;0.30;;;30.60;77.30;;;;;;4127404;28;20130;-84
2022/07/15 09:46:11;;;;;;;0.65;0.30;;;31.10;81.10;;;;;;4129565;28;20052;-84
2022/07/15 09:48:38;;;;;;;;;;;31.10;78.10;;;;;;4129418;28;20054;-84
2022/07/15 09:51:00;;;;;;;0.40;0.30;;;30.70;79.50;;;;;;4120550;28;19988;-84
2022/07/15 09:53:21;;;;;;;8.68;6.13;;;31.30;78.80;;;;;;4138724;28;20064;-84
2022/07/15 09:55:41;;;;;;;34.85;8.38;;;31.40;79.70;;;;;;4129170;28;20049;-84
2022/07/15 09:58:05;;;;;;;0.25;0.25;;;31.50;79.30;;;;;;4119939;28;20178;-84
2022/07/15 10:00:26;;;;;;;0.30;0.30;;;31.30;73.30;;;;;;4106479;28;20584;-84
2022/07/15 10:02:48;;;;;;;1.55;0.30;;;31.00;76.60;;;;;;4116834;28;20061;-84
2022/07/15 10:05:09;;;;;;;0.85;0.30;;;31.30;78.90;;;;;;4158084;28;20068;-84
2022/07/15 10:07:30;;;;;;;2.70;0.30;;;31.70;73.80;;;;;;4163771;28;20073;-84
2022/07/15 10:09:50;;;;;;;0.28;0.28;;;31.90;74.60;;;;;;4153111;28;20053;-85
2022/07/15 10:12:20;;;;;;;0.45;0.30;;;31.50;71.80;;;;;;4159281;28;20103;-84
2022/07/15 10:15:07;;;;;;;1.20;0.22;;;31.80;76.50;;;;;;4136687;28;20105;-84
2022/07/15 10:17:28;;;;;;;0.80;0.20;;;31.90;78.70;;;;;;4152201;28;20099;-84
2022/07/15 10:20:12;;;;;;;0.45;0.22;;;32.10;73.00;;;;;;4153117;28;20060;-85
2022/07/15 10:23:15;;;;;;;0.30;0.30;;;31.70;72.60;;;;;;4147565;28;20058;-84
2022/07/15 10:26:08;;;;;;;22.10;0.95;;;32.40;70.50;;;;;;4148096;28;20045;-84
2022/07/15 10:28:36;;;;;;;0.25;0.20;;;32.80;68.50;;;;;;4135555;28;20053;-84
2022/07/15 10:31:22;;;;;;;0.20;0.20;;;32.60;66.40;;;;;;4140505;28;20053;-84
2022/07/15 10:34:03;;;;;;;1.10;0.20;;;32.50;66.40;;;;;;4157390;28;20054;-85
2022/07/15 10:36:24;;;;;;;25.65;1.58;;;33.20;70.30;;;;;;4157230;28;20047;-84
2022/07/15 10:39:03;;;;;;;0.30;0.30;;;33.50;72.40;;;;;;4144695;28;20065;-84
2022/07/15 10:41:24;;;;;;;0.20;0.20;;;32.90;66.50;;;;;;4145354;28;20084;-85
2022/07/15 10:43:49;;;;;;;1.02;0.20;;;33.20;66.70;;;;;;4158894;28;20052;-85
2022/07/15 10:46:22;;;;;;;0.82;0.20;;;33.60;65.80;;;;;;4132413;28;20592;-86
2022/07/15 10:48:57;;;;;;;0.20;0.20;;;33.80;66.90;;;;;;4160466;28;20165;-85
2022/07/15 10:51:37;;;;;;;0.20;0.20;;;33.40;67.10;;;;;;4153629;28;20524;-85
2022/07/15 10:53:57;;;;;;;0.13;0.13;;;32.70;58.90;;;;;;4156507;28;20473;-85
2022/07/15 10:56:31;;;;;;;0.55;0.20;;;33.00;59.60;;;;;;4179353;28;20129;-85
2022/07/15 10:59:14;;;;;;;0.20;0.20;;;33.30;66.50;;;;;;4160237;28;20524;-84
2022/07/15 11:01:38;;;;;;;0.22;0.20;;;33.40;70.10;;;;;;4153697;28;20053;-85
2022/07/15 11:04:20;;;;;;;0.82;0.20;;;33.10;69.00;;;;;;4147941;28;20138;-85
2022/07/15 11:07:04;;;;;;;2.70;1.05;;;33.70;72.70;;;;;;4140621;28;20629;-85
2022/07/15 11:09:51;;;;;;;0.20;0.20;;;33.30;73.40;;;;;;4162841;28;20448;-85
2022/07/15 11:12:14;;;;;;;1.77;0.35;;;34.20;73.30;;;;;;4156146;28;20104;-85
2022/07/15 11:15:06;;;;;;;0.32;0.30;;;34.10;67.80;;;;;;4159838;28;20487;-86
2022/07/15 11:17:33;;;;;;;0.20;0.20;;;34.20;71.40;;;;;;4147154;28;20108;-85
2022/07/15 11:19:55;;;;;;;0.20;0.20;;;33.90;67.50;;;;;;4162557;28;20864;-85
2022/07/15 11:22:17;;;;;;;;;;;33.30;66.80;;;;;;4147223;28;20057;-85
2022/07/15 11:24:37;;;;;;;0.20;0.20;;;33.90;68.00;;;;;;4157111;28;19931;-86
2022/07/15 11:27:01;;;;;;;0.20;0.20;;;34.40;67.30;;;;;;4160789;28;20123;-85
2022/07/15 11:29:22;;;;;;;1.95;0.20;;;34.50;67.70;;;;;;4162353;28;20096;-86
2022/07/15 11:31:47;;;;;;;1.45;0.30;;;34.80;66.40;;;;;;4148003;28;20057;-85
2022/07/15 11:34:09;;;;;;;0.20;0.20;;;34.50;65.40;;;;;;4130575;28;20045;-85
2022/07/15 11:36:29;;;;;;;0.20;0.20;;;34.20;65.50;;;;;;4138565;28;20040;-85
2022/07/15 11:38:51;;;;;;;0.20;0.20;;;34.00;65.20;;;;;;4147262;28;20053;-85
2022/07/15 11:46:46;;;;;;;0.20;0.20;;;34.70;63.00;;;;;;4145449;28;20052;-82
2022/07/15 11:49:07;;;;;;;0.10;0.10;;;34.50;60.90;;;;;;4155619;28;20064;-82
2022/07/15 11:51:30;;;;;;;0.20;0.20;;;34.30;61.60;;;;;;4156699;28;20437;-82
2022/07/15 11:53:51;;;;;;;0.98;0.10;;;34.20;59.80;;;;;;4147159;28;20134;-82
2022/07/15 11:56:13;;;;;;;0.25;0.25;;;33.70;60.20;;;;;;4161633;28;20080;-82
2022/07/15 11:58:45;;;;;;;0.10;0.10;;;33.50;60.50;;;;;;4146047;28;20137;-82
2022/07/15 12:01:10;;;;;;;0.93;0.20;;;34.00;62.40;;;;;;4160722;28;20048;-82
2022/07/15 12:03:34;;;;;;;0.20;0.20;;;33.70;59.20;;;;;;4130532;28;20458;-82
2022/07/15 12:06:11;;;;;;;0.20;0.20;;;34.50;63.30;;;;;;4145212;28;20483;-82
2022/07/15 12:08:46;;;;;;;0.20;0.20;;;34.80;60.60;;;;;;4143313;28;20510;-82
2022/07/15 12:11:35;;;;;;;0.20;0.20;;;34.80;60.90;;;;;;4165026;28;20085;-82
2022/07/15 12:14:03;;;;;;;0.28;0.20;;;34.50;61.80;;;;;;4158100;28;20048;-82
2022/07/15 12:16:35;;;;;;;0.15;0.15;;;35.30;62.70;;;;;;4161313;28;20052;-82
2022/07/15 12:18:58;;;;;;;0.90;0.20;;;35.80;61.90;;;;;;4135460;28;20053;-83
2022/07/15 12:21:21;;;;;;;1.05;0.10;;;35.50;61.70;;;;;;4142295;28;20058;-83
2022/07/15 12:23:41;;;;;;;0.47;0.10;;;35.40;60.80;;;;;;4144981;28;20061;-83
2022/07/15 12:26:04;;;;;;;0.20;0.20;;;34.70;63.60;;;;;;4143670;28;20108;-82
2022/07/15 12:28:29;;;;;;;1.77;0.10;;;35.10;60.10;;;;;;4160839;28;20048;-83
2022/07/15 12:30:49;;;;;;;0.20;0.20;;;35.10;60.80;;;;;;4160974;28;20123;-82
2022/07/15 12:33:22;;;;;;;0.38;0.20;;;35.00;63.10;;;;;;4160975;28;20578;-82
2022/07/15 12:35:43;;;;;;;0.20;0.20;;;35.20;62.60;;;;;;4146103;28;20122;-82
2022/07/15 12:38:05;;;;;;;0.20;0.20;;;35.30;62.80;;;;;;4146548;28;20116;-82
2022/07/15 12:40:26;;;;;;;2.67;0.20;;;34.80;61.40;;;;;;4161248;28;20118;-83